createdAt,value
2018-04-17T00:00:53.639Z,66.57
2018-04-17T00:03:21.111Z,68.70
2018-04-17T00:05:48.668Z,67.83
2018-04-17T00:08:16.151Z,67.90
2018-04-17T00:10:44.455Z,70.73
2018-04-17T00:13:11.961Z,63.10
2018-04-17T00:15:39.452Z,60.37
2018-04-17T00:18:06.932Z,61.97
2018-04-17T00:20:34.443Z,62.00
2018-04-17T00:23:02.783Z,64.13
2018-04-17T00:25:30.263Z,57.83
2018-04-17T00:27:57.723Z,62.63
2018-04-17T00:30:25.202Z,52.37
2018-04-17T00:32:52.684Z,58.40
2018-04-17T00:35:20.910Z,55.13
2018-04-17T00:37:48.575Z,61.73
2018-04-17T00:40:16.257Z,61.10
2018-04-17T00:42:44.510Z,58.90
2018-04-17T00:45:12.025Z,57.13
2018-04-17T00:47:40.229Z,53.63
2018-04-17T00:50:07.702Z,64.73
2018-04-17T00:52:35.192Z,61.30
2018-04-17T00:55:02.668Z,60.93
2018-04-17T00:57:30.136Z,68.20
2018-04-17T00:59:57.611Z,70.93
2018-04-17T01:02:25.100Z,63.27
2018-04-17T01:04:53.342Z,67.83
2018-04-17T01:07:20.817Z,63.13
2018-04-17T01:09:49.899Z,76.73
2018-04-17T01:12:17.393Z,73.33
2018-04-17T01:14:45.636Z,69.23
2018-04-17T01:17:13.217Z,67.90
2018-04-17T01:19:41.481Z,66.93
2018-04-17T01:22:09.729Z,66.40
2018-04-17T01:24:37.200Z,74.23
2018-04-17T01:27:04.685Z,71.40
2018-04-17T01:29:32.921Z,68.03
2018-04-17T01:32:00.392Z,65.80
2018-04-17T01:34:27.903Z,66.63
2018-04-17T01:36:55.407Z,63.73
2018-04-17T01:39:22.886Z,71.50
2018-04-17T01:41:51.123Z,78.25
2018-04-17T01:44:18.600Z,66.17
2018-04-17T01:46:46.151Z,71.13
2018-04-17T01:49:13.710Z,70.40
2018-04-17T01:51:41.180Z,66.97
2018-04-17T01:54:09.456Z,72.07
2018-04-17T01:56:37.723Z,76.37
2018-04-17T01:59:05.284Z,69.12
2018-04-17T02:01:32.852Z,68.93
2018-04-17T02:04:01.107Z,69.87
2018-04-17T02:06:28.594Z,61.45
2018-04-17T02:08:56.859Z,62.57
2018-04-17T02:11:24.323Z,73.90
2018-04-17T02:13:52.579Z,66.18
2018-04-17T02:16:20.059Z,66.95
2018-04-17T02:18:48.304Z,76.97
2018-04-17T02:21:15.872Z,75.25
2018-04-17T02:23:43.351Z,74.22
2018-04-17T02:26:11.599Z,72.30
2018-04-17T02:28:39.078Z,78.72
2018-04-17T02:31:07.336Z,66.12
2018-04-17T02:33:34.817Z,70.03
2018-04-17T02:36:03.068Z,79.18
2018-04-17T02:38:30.638Z,80.12
2018-04-17T02:40:58.114Z,70.32
2018-04-17T02:43:25.621Z,67.70
2018-04-17T02:45:53.118Z,69.95
2018-04-17T02:48:21.356Z,69.18
2018-04-17T02:50:48.832Z,72.25
2018-04-17T02:53:16.316Z,69.62
2018-04-17T02:55:44.564Z,77.55
2018-04-17T02:58:13.549Z,68.80
2018-04-17T03:00:41.037Z,72.55
2018-04-17T03:03:09.280Z,69.40
2018-04-17T03:05:36.747Z,76.05
2018-04-17T03:08:04.311Z,68.12
2018-04-17T03:10:31.859Z,65.47
2018-04-17T03:12:59.342Z,72.57
2018-04-17T03:15:26.839Z,65.53
2018-04-17T03:17:54.313Z,65.95
2018-04-17T03:20:21.790Z,65.40
2018-04-17T03:22:49.260Z,65.28
2018-04-17T03:25:17.523Z,66.68
2018-04-17T03:27:45.006Z,71.87
2018-04-17T03:30:13.267Z,71.82
2018-04-17T03:32:40.744Z,67.05
2018-04-17T03:35:08.272Z,68.00
2018-04-17T03:37:35.747Z,65.32
2018-04-17T03:40:03.990Z,70.03
2018-04-17T03:42:31.473Z,68.03
2018-04-17T03:44:58.956Z,64.87
2018-04-17T03:47:26.536Z,66.05
2018-04-17T03:49:54.052Z,73.60
2018-04-17T03:52:22.310Z,73.00
2018-04-17T03:54:49.782Z,73.35
2018-04-17T03:57:18.028Z,72.40
2018-04-17T03:59:47.114Z,64.70
2018-04-17T04:02:14.588Z,78.40
2018-04-17T04:04:42.073Z,70.85
2018-04-17T04:07:09.568Z,65.25
2018-04-17T04:09:37.065Z,71.43
2018-04-17T04:12:04.548Z,75.57
2018-04-17T04:14:32.016Z,75.10
2018-04-17T04:17:11.336Z,75.22
2018-04-17T04:19:51.572Z,82.60
2018-04-17T04:22:30.923Z,78.35
2018-04-17T04:25:16.233Z,73.35
2018-04-17T04:27:43.708Z,88.60
2018-04-17T04:30:11.193Z,78.70
2018-04-17T04:32:38.676Z,74.65
2018-04-17T04:35:06.927Z,79.72
2018-04-17T04:37:34.415Z,78.80
2018-04-17T04:40:01.879Z,79.82
2018-04-17T04:42:29.391Z,88.53
2018-04-17T04:44:56.966Z,71.80
2018-04-17T04:47:24.451Z,84.37
2018-04-17T04:49:51.922Z,79.82
2018-04-17T04:52:19.431Z,89.75
2018-04-17T04:54:46.909Z,82.60
2018-04-17T04:57:14.415Z,83.20
2018-04-17T04:59:41.886Z,96.03
2018-04-17T05:02:09.469Z,79.90
2018-04-17T05:04:37.737Z,85.55
2018-04-17T05:07:05.227Z,94.10
2018-04-17T05:09:32.708Z,84.70
2018-04-17T05:12:00.208Z,78.90
2018-04-17T05:14:27.675Z,83.75
2018-04-17T05:16:55.926Z,80.60
2018-04-17T05:19:23.403Z,79.93
2018-04-17T05:21:51.731Z,96.20
2018-04-17T05:24:19.935Z,87.45
2018-04-17T05:26:47.425Z,83.00
2018-04-17T05:29:15.796Z,92.37
2018-04-17T05:31:44.039Z,92.88
2018-04-17T05:34:11.531Z,91.30
2018-04-17T05:36:39.847Z,86.37
2018-04-17T05:39:07.320Z,87.25
2018-04-17T05:41:34.833Z,85.10
2018-04-17T05:44:02.359Z,89.07
2018-04-17T05:46:29.838Z,82.12
2018-04-17T05:48:58.088Z,84.20
2018-04-17T05:51:25.568Z,87.30
2018-04-17T05:53:53.961Z,81.30
2018-04-17T05:56:21.435Z,85.78
2018-04-17T05:58:48.936Z,93.18
2018-04-17T06:01:16.428Z,76.60
2018-04-17T06:03:43.916Z,81.22
2018-04-17T06:06:11.409Z,95.45
2018-04-17T06:08:38.892Z,95.12
2018-04-17T06:11:07.154Z,85.60
2018-04-17T06:13:34.639Z,87.78
2018-04-17T06:16:02.105Z,88.70
2018-04-17T06:18:29.584Z,90.03
2018-04-17T06:20:57.063Z,94.47
2018-04-17T06:23:24.535Z,85.90
2018-04-17T06:25:52.005Z,90.35
2018-04-17T06:28:20.372Z,89.80
2018-04-17T06:30:47.840Z,83.60
2018-04-17T06:33:16.067Z,78.33
2018-04-17T06:35:43.564Z,72.27
2018-04-17T06:38:11.042Z,67.93
2018-04-17T06:40:39.302Z,75.00
2018-04-17T06:43:07.538Z,65.37
2018-04-17T06:45:35.027Z,63.57
2018-04-17T06:48:02.491Z,73.23
2018-04-17T06:50:30.719Z,66.43
2018-04-17T06:52:58.178Z,71.63
2018-04-17T06:55:25.654Z,69.37
2018-04-17T06:57:53.131Z,67.37
2018-04-17T07:00:20.623Z,63.57
2018-04-17T07:02:48.104Z,65.30
2018-04-17T07:05:15.661Z,64.17
2018-04-17T07:07:43.878Z,69.33
2018-04-17T07:10:11.422Z,69.70
2018-04-17T07:12:39.017Z,54.40
2018-04-17T07:15:07.252Z,60.63
2018-04-17T07:17:34.736Z,59.10
2018-04-17T07:20:02.973Z,64.70
2018-04-17T07:22:30.451Z,59.57
2018-04-17T07:24:57.964Z,55.40
2018-04-17T07:27:25.441Z,50.37
2018-04-17T07:29:52.929Z,50.07
2018-04-17T07:32:20.445Z,48.47
2018-04-17T07:34:47.942Z,55.80
2018-04-17T07:37:15.411Z,55.60
2018-04-17T07:39:42.960Z,42.50
2018-04-17T07:42:10.519Z,46.43
2018-04-17T07:44:38.080Z,36.83
2018-04-17T07:47:17.405Z,42.67
2018-04-17T07:49:45.681Z,33.90
2018-04-17T07:52:13.240Z,34.30
2018-04-17T07:54:40.698Z,38.20
2018-04-17T07:57:08.187Z,31.77
2018-04-17T07:59:36.421Z,32.07
2018-04-17T08:02:03.893Z,30.57
2018-04-17T08:04:31.456Z,35.90
2018-04-17T08:06:59.060Z,29.17
2018-04-17T08:09:26.523Z,25.97
2018-04-17T08:11:54.046Z,26.63
2018-04-17T08:14:22.247Z,16.80
2018-04-17T08:16:49.739Z,19.37
2018-04-17T08:19:17.268Z,24.87
2018-04-17T08:21:44.755Z,19.87
2018-04-17T08:24:12.233Z,18.43
2018-04-17T08:26:39.710Z,15.30
2018-04-17T08:29:07.948Z,20.03
2018-04-17T08:31:35.444Z,16.73
2018-04-17T08:34:03.679Z,21.17
2018-04-17T08:36:31.239Z,17.67
2018-04-17T08:38:58.799Z,13.60
2018-04-17T08:41:26.364Z,11.90
2018-04-17T08:43:53.883Z,11.13
2018-04-17T08:46:21.352Z,11.27
2018-04-17T08:48:48.835Z,15.10
2018-04-17T08:51:16.395Z,12.07
2018-04-17T08:53:44.031Z,11.47
2018-04-17T08:56:11.605Z,7.10
2018-04-17T08:58:39.174Z,5.77
2018-04-17T09:01:06.734Z,5.40
2018-04-17T09:03:34.296Z,6.47
2018-04-17T09:06:02.341Z,8.43
2018-04-17T09:08:29.829Z,5.80
2018-04-17T09:10:57.858Z,8.77
2018-04-17T09:13:25.332Z,7.87
2018-04-17T09:15:52.910Z,7.87
2018-04-17T09:18:20.457Z,11.67
2018-04-17T09:20:49.568Z,11.47
2018-04-17T09:23:17.741Z,10.00
2018-04-17T09:25:45.379Z,14.83
2018-04-17T09:28:13.156Z,12.23
2018-04-17T09:30:40.619Z,7.50
2018-04-17T09:33:09.634Z,11.23
2018-04-17T09:35:37.077Z,10.17
2018-04-17T09:38:04.535Z,7.77
2018-04-17T09:40:32.772Z,8.50
2018-04-17T09:43:00.254Z,6.47
2018-04-17T09:45:27.817Z,12.33
2018-04-17T09:47:55.275Z,10.53
2018-04-17T09:50:22.734Z,10.87
2018-04-17T09:52:50.209Z,8.47
2018-04-17T09:55:18.559Z,12.67
2018-04-17T09:57:46.029Z,11.90
2018-04-17T10:00:13.493Z,8.90
2018-04-17T10:02:41.723Z,6.80
2018-04-17T10:05:09.265Z,9.03
2018-04-17T10:07:36.726Z,8.13
2018-04-17T10:10:04.183Z,6.97
2018-04-17T10:12:31.642Z,10.20
2018-04-17T10:14:59.134Z,9.97
2018-04-17T10:17:26.658Z,8.57
2018-04-17T10:19:54.866Z,10.43
2018-04-17T10:22:22.328Z,6.83
2018-04-17T10:24:49.804Z,5.93
2018-04-17T10:27:18.050Z,10.80
2018-04-17T10:29:45.529Z,10.30
2018-04-17T10:32:13.759Z,8.93
2018-04-17T10:34:41.216Z,7.70
2018-04-17T10:37:08.664Z,8.10
2018-04-17T10:39:36.127Z,5.73
2018-04-17T10:42:03.583Z,5.50
2018-04-17T10:44:31.067Z,13.23
2018-04-17T10:46:59.299Z,16.43
2018-04-17T10:49:26.785Z,9.50
2018-04-17T10:51:54.248Z,9.70
2018-04-17T10:54:21.703Z,9.60
2018-04-17T10:56:49.446Z,5.00
2018-04-17T10:59:17.039Z,10.07
2018-04-17T11:01:44.498Z,9.77
2018-04-17T11:04:11.963Z,8.77
2018-04-17T11:06:40.231Z,6.43
2018-04-17T11:09:07.708Z,10.83
2018-04-17T11:11:35.934Z,7.13
2018-04-17T11:14:03.516Z,10.23
2018-04-17T11:16:31.744Z,9.10
2018-04-17T11:18:59.212Z,7.07
2018-04-17T11:21:26.712Z,8.20
2018-04-17T11:23:54.265Z,7.10
2018-04-17T11:26:21.723Z,10.23
2018-04-17T11:28:49.268Z,9.73
2018-04-17T11:31:16.789Z,6.13
2018-04-17T11:33:44.244Z,9.10
2018-04-17T11:36:11.743Z,10.27
2018-04-17T11:38:39.215Z,8.47
2018-04-17T11:41:06.685Z,16.43
2018-04-17T11:43:34.932Z,8.83
2018-04-17T11:46:02.508Z,12.20
2018-04-17T11:48:30.755Z,4.93
2018-04-17T11:50:58.220Z,9.83
2018-04-17T11:53:25.685Z,17.17
2018-04-17T11:55:53.915Z,15.63
2018-04-17T11:58:21.380Z,13.30
2018-04-17T12:00:48.839Z,15.00
2018-04-17T12:03:16.299Z,17.37
2018-04-17T12:05:43.755Z,11.00
2018-04-17T12:08:11.234Z,8.23
2018-04-17T12:10:38.706Z,11.77
2018-04-17T12:13:06.216Z,6.77
2018-04-17T12:15:33.715Z,12.57
2018-04-17T12:18:01.268Z,10.40
2018-04-17T12:20:29.518Z,9.27
2018-04-17T12:22:56.979Z,10.37
2018-04-17T12:25:24.455Z,6.00
2018-04-17T12:27:52.032Z,9.53
2018-04-17T12:30:19.517Z,6.37
2018-04-17T12:32:46.979Z,6.87
2018-04-17T12:35:14.448Z,15.53
2018-04-17T12:37:41.958Z,10.80
2018-04-17T12:40:09.507Z,9.90
2018-04-17T12:42:36.974Z,9.83
2018-04-17T12:45:04.445Z,7.13
2018-04-17T12:47:32.693Z,13.33
2018-04-17T12:50:00.156Z,9.00
2018-04-17T12:52:27.712Z,6.20
2018-04-17T12:54:55.185Z,8.80
2018-04-17T12:57:23.422Z,7.80
2018-04-17T12:59:50.913Z,12.90
2018-04-17T13:02:18.369Z,7.50
2018-04-17T13:04:46.605Z,5.57
2018-04-17T13:07:14.055Z,9.13
2018-04-17T13:09:41.556Z,5.63
2018-04-17T13:12:09.023Z,6.97
2018-04-17T13:14:37.257Z,9.60
2018-04-17T13:17:04.715Z,14.77
2018-04-17T13:19:32.299Z,8.70
2018-04-17T13:21:59.907Z,7.87
2018-04-17T13:24:27.370Z,6.83
2018-04-17T13:26:54.843Z,10.80
2018-04-17T13:29:22.403Z,11.00
2018-04-17T13:31:49.862Z,10.03
2018-04-17T13:34:17.339Z,7.17
2018-04-17T13:36:44.798Z,9.67
2018-04-17T13:39:12.300Z,6.33
2018-04-17T13:41:39.807Z,10.30
2018-04-17T13:44:07.287Z,8.40
2018-04-17T13:46:35.516Z,9.67
2018-04-17T13:49:02.976Z,10.03
2018-04-17T13:51:30.446Z,10.33
2018-04-17T13:53:57.960Z,8.10
2018-04-17T13:56:25.428Z,11.90
2018-04-17T13:58:52.931Z,5.40
2018-04-17T14:01:20.401Z,8.23
2018-04-17T14:03:48.647Z,11.73
2018-04-17T14:06:16.324Z,10.33
2018-04-17T14:08:43.882Z,11.63
2018-04-17T14:11:11.380Z,10.27
2018-04-17T14:13:38.844Z,12.63
2018-04-17T14:16:06.332Z,11.10
2018-04-17T14:18:33.779Z,9.87
2018-04-17T14:21:01.253Z,6.90
2018-04-17T14:23:28.723Z,8.53
2018-04-17T14:25:56.318Z,7.23
2018-04-17T14:28:23.788Z,14.13
2018-04-17T14:30:51.279Z,10.03
2018-04-17T14:33:18.735Z,6.43
2018-04-17T14:35:46.368Z,14.63
2018-04-17T14:38:13.859Z,8.13
2018-04-17T14:40:41.316Z,13.20
2018-04-17T14:43:08.830Z,6.77
2018-04-17T14:45:36.248Z,6.73
2018-04-17T14:48:04.517Z,6.50
2018-04-17T14:50:32.008Z,8.40
2018-04-17T14:52:59.477Z,7.60
2018-04-17T14:55:26.994Z,8.07
2018-04-17T14:57:54.639Z,7.47
2018-04-17T15:00:22.233Z,6.27
2018-04-17T15:02:50.468Z,7.37
2018-04-17T15:05:17.932Z,10.50
2018-04-17T15:07:45.387Z,8.37
2018-04-17T15:10:12.890Z,9.77
2018-04-17T15:12:40.420Z,7.50
2018-04-17T15:15:07.890Z,7.90
2018-04-17T15:17:36.127Z,15.00
2018-04-17T15:20:03.596Z,6.17
2018-04-17T15:22:31.061Z,9.27
2018-04-17T15:24:58.541Z,7.40
2018-04-17T15:27:26.769Z,7.30
2018-04-17T15:29:54.231Z,7.63
2018-04-17T15:32:21.693Z,4.83
2018-04-17T15:34:49.202Z,11.10
2018-04-17T15:37:16.721Z,4.13
2018-04-17T15:39:44.175Z,7.10
2018-04-17T15:42:11.740Z,9.83
2018-04-17T15:44:39.969Z,4.90
2018-04-17T15:47:07.463Z,6.37
2018-04-17T15:49:35.023Z,8.80
2018-04-17T15:52:02.506Z,10.20
2018-04-17T15:54:30.734Z,6.00
2018-04-17T15:56:58.200Z,7.07
2018-04-17T15:59:25.732Z,8.43
2018-04-17T16:01:53.232Z,12.60
2018-04-17T16:04:20.678Z,6.10
2018-04-17T16:06:48.908Z,7.17
2018-04-17T16:09:16.371Z,8.47
2018-04-17T16:11:44.024Z,11.90
2018-04-17T16:14:11.487Z,10.40
2018-04-17T16:16:38.943Z,4.40
2018-04-17T16:19:06.501Z,8.33
2018-04-17T16:21:33.959Z,7.40
2018-04-17T16:24:01.457Z,13.20
2018-04-17T16:26:28.923Z,5.03
2018-04-17T16:28:56.480Z,11.27
2018-04-17T16:31:23.939Z,7.70
2018-04-17T16:33:51.500Z,7.83
2018-04-17T16:36:18.964Z,6.50
2018-04-17T16:38:47.191Z,8.10
2018-04-17T16:41:14.659Z,8.97
2018-04-17T16:43:42.117Z,5.23
2018-04-17T16:46:09.583Z,5.90
2018-04-17T16:48:37.050Z,7.23
2018-04-17T16:51:04.617Z,3.97
2018-04-17T16:53:32.111Z,14.20
2018-04-17T16:55:59.580Z,8.63
2018-04-17T16:58:27.035Z,4.67
2018-04-17T17:00:54.516Z,7.13
2018-04-17T17:03:21.983Z,10.00
2018-04-17T17:05:49.454Z,7.90
2018-04-17T17:08:16.998Z,7.90
2018-04-17T17:10:44.460Z,8.57
2018-04-17T17:13:12.031Z,7.33
2018-04-17T17:15:39.541Z,10.17
2018-04-17T17:18:07.048Z,8.00
2018-04-17T17:20:34.512Z,7.07
2018-04-17T17:23:02.758Z,10.80
2018-04-17T17:25:30.350Z,13.30
2018-04-17T17:27:58.618Z,10.53
2018-04-17T17:30:26.172Z,8.60
2018-04-17T17:32:54.407Z,7.87
2018-04-17T17:35:21.868Z,9.73
2018-04-17T17:37:49.348Z,7.93
2018-04-17T17:40:16.908Z,9.90
2018-04-17T17:42:44.385Z,4.70
2018-04-17T17:45:11.838Z,12.43
2018-04-17T17:47:39.309Z,7.83
2018-04-17T17:50:07.557Z,12.43
2018-04-17T17:52:35.121Z,11.80
2018-04-17T17:55:02.675Z,9.27
2018-04-17T17:57:30.160Z,8.20
2018-04-17T17:59:57.584Z,6.53
2018-04-17T18:02:25.065Z,9.90
2018-04-17T18:04:53.287Z,7.47
2018-04-17T18:07:20.762Z,9.47
2018-04-17T18:09:48.220Z,7.77
2018-04-17T18:12:15.711Z,5.63
2018-04-17T18:14:43.940Z,5.43
2018-04-17T18:17:11.413Z,7.40
2018-04-17T18:19:38.914Z,8.00
2018-04-17T18:22:06.359Z,4.50
2018-04-17T18:24:34.667Z,8.80
2018-04-17T18:27:02.140Z,12.93
2018-04-17T18:29:29.607Z,11.00
2018-04-17T18:31:57.070Z,10.00
2018-04-17T18:34:24.642Z,8.10
2018-04-17T18:36:52.099Z,5.93
2018-04-17T18:39:19.680Z,7.63
2018-04-17T18:41:47.948Z,13.33
2018-04-17T18:44:16.189Z,12.07
2018-04-17T18:46:43.670Z,5.60
2018-04-17T18:49:11.358Z,5.10
2018-04-17T18:51:39.807Z,5.97
2018-04-17T18:54:07.494Z,5.53
2018-04-17T18:56:35.820Z,14.30
2018-04-17T18:59:03.320Z,9.20
2018-04-17T19:01:31.633Z,6.60
2018-04-17T19:03:59.145Z,8.07
2018-04-17T19:06:26.624Z,10.60
2018-04-17T19:08:54.847Z,10.60
2018-04-17T19:11:22.321Z,8.17
2018-04-17T19:13:51.307Z,7.63
2018-04-17T19:16:18.875Z,11.43
2018-04-17T19:18:47.125Z,12.20
2018-04-17T19:21:14.644Z,10.60
2018-04-17T19:23:42.855Z,9.10
2018-04-17T19:26:10.315Z,7.13
2018-04-17T19:28:37.802Z,10.97
2018-04-17T19:31:06.038Z,12.50
2018-04-17T19:33:33.509Z,17.20
2018-04-17T19:36:00.996Z,12.83
2018-04-17T19:38:28.558Z,6.87
2018-04-17T19:40:56.064Z,9.03
2018-04-17T19:43:23.536Z,14.10
2018-04-17T19:45:51.026Z,11.80
2018-04-17T19:48:18.586Z,10.27
2018-04-17T19:50:46.146Z,10.43
2018-04-17T19:53:13.603Z,12.00
2018-04-17T19:55:41.062Z,18.43
2018-04-17T19:58:09.295Z,14.87
2018-04-17T20:00:36.754Z,6.53
2018-04-17T20:03:04.232Z,12.10
2018-04-17T20:05:31.691Z,7.23
2018-04-17T20:07:59.179Z,11.80
2018-04-17T20:10:26.671Z,14.93
2018-04-17T20:12:54.181Z,14.57
2018-04-17T20:15:22.424Z,15.53
2018-04-17T20:17:49.970Z,7.60
2018-04-17T20:20:17.433Z,10.50
2018-04-17T20:22:44.907Z,14.27
2018-04-17T20:25:12.388Z,20.80
2018-04-17T20:27:40.626Z,18.47
2018-04-17T20:30:08.156Z,11.90
2018-04-17T20:32:35.620Z,9.23
2018-04-17T20:35:03.103Z,12.57
2018-04-17T20:37:30.580Z,13.67
2018-04-17T20:39:58.803Z,13.50
2018-04-17T20:42:26.288Z,13.73
2018-04-17T20:44:53.771Z,13.27
2018-04-17T20:47:22.048Z,12.10
2018-04-17T20:49:50.325Z,21.30
2018-04-17T20:52:17.880Z,10.67
2018-04-17T20:54:45.349Z,14.10
2018-04-17T20:57:13.590Z,13.63
2018-04-17T20:59:41.060Z,12.43
2018-04-17T21:02:08.554Z,13.03
2018-04-17T21:04:36.016Z,21.40
2018-04-17T21:07:03.500Z,23.30
2018-04-17T21:09:30.982Z,10.90
2018-04-17T21:11:58.488Z,13.70
2018-04-17T21:14:25.960Z,14.30
2018-04-17T21:16:53.437Z,18.67
2018-04-17T21:19:20.906Z,14.73
2018-04-17T21:21:48.400Z,20.57
2018-04-17T21:24:16.652Z,12.47
2018-04-17T21:26:44.132Z,18.30
2018-04-17T21:29:12.374Z,12.80
2018-04-17T21:31:39.854Z,11.83
2018-04-17T21:34:08.117Z,14.40
2018-04-17T21:36:36.413Z,12.67
2018-04-17T21:39:04.645Z,26.27
2018-04-17T21:41:32.174Z,15.53
2018-04-17T21:43:59.603Z,14.13
2018-04-17T21:46:27.852Z,16.63
2018-04-17T21:48:55.323Z,15.90
2018-04-17T21:51:23.575Z,18.27
2018-04-17T21:53:51.065Z,18.73
2018-04-17T21:56:19.315Z,21.83
2018-04-17T21:58:46.787Z,14.83
2018-04-17T22:01:15.054Z,19.20
2018-04-17T22:03:42.612Z,24.67
2018-04-17T22:06:10.884Z,27.87
2018-04-17T22:08:38.348Z,15.07
2018-04-17T22:11:05.824Z,23.10
2018-04-17T22:13:33.318Z,25.87
2018-04-17T22:16:00.837Z,21.63
2018-04-17T22:18:28.374Z,20.67
2018-04-17T22:20:55.838Z,21.27
2018-04-17T22:23:24.091Z,24.60
2018-04-17T22:25:51.559Z,14.23
2018-04-17T22:28:19.053Z,16.17
2018-04-17T22:30:46.542Z,23.43
2018-04-17T22:33:14.020Z,23.07
2018-04-17T22:35:41.498Z,15.40
2018-04-17T22:38:09.732Z,16.60
2018-04-17T22:40:37.202Z,15.13
2018-04-17T22:43:04.660Z,12.20
2018-04-17T22:45:32.197Z,23.07
2018-04-17T22:48:00.386Z,16.97
2018-04-17T22:50:27.871Z,18.20
2018-04-17T22:52:56.105Z,11.70
2018-04-17T22:55:23.588Z,20.80
2018-04-17T22:57:51.108Z,12.33
2018-04-17T23:00:18.573Z,26.20
2018-04-17T23:02:46.047Z,22.50
2018-04-17T23:05:13.551Z,13.43
2018-04-17T23:07:41.779Z,14.70
2018-04-17T23:10:09.255Z,16.53
2018-04-17T23:12:36.808Z,16.13
2018-04-17T23:15:04.367Z,15.93
2018-04-17T23:17:31.927Z,15.43
2018-04-17T23:19:59.417Z,14.57
2018-04-17T23:22:27.642Z,11.87
2018-04-17T23:24:55.228Z,10.40
2018-04-17T23:27:22.780Z,27.03
2018-04-17T23:29:51.756Z,12.10
2018-04-17T23:32:19.240Z,15.03
2018-04-17T23:34:46.768Z,16.47
2018-04-17T23:37:14.236Z,16.97
2018-04-17T23:39:41.711Z,17.03
2018-04-17T23:42:09.195Z,13.80
2018-04-17T23:44:36.667Z,14.90
2018-04-17T23:47:04.151Z,14.90
2018-04-17T23:49:31.615Z,17.07
2018-04-17T23:51:59.176Z,12.77
2018-04-17T23:54:26.639Z,16.37
2018-04-17T23:56:54.157Z,16.57
2018-04-17T23:59:21.615Z,18.23
